Pleasant Lake, MI (49272)

6:38 AM EDT on May 06, 2015 (GMT -0400)
Pleasant Lake | | Change Station
CLOSE
Current Station
Personal Weather Station
Location: Pleasant Lake, MI
Elevation: 971 ft
Nearby Weather Stations

Elev 971 ft 42.39 °N, 84.34 °W | Updated 10 seconds ago

Fog
Fog
52.0 °F
Feels Like 52.0 °F
N
0.0
Wind Variable Wind from North
Gusts 0.7 mph

Today
High -- | Low -- °F
--% Chance of Precip.
Yesterday
High -- | Low -- °F
Precip. -- in
6:26 AM 8:42 PM
Waning Gibbous, 95% visible
Pressure 30.25 in
Visibility 1.5 miles
Clouds Overcast 200 ft
Dew Point 52 °F
Humidity 99%
Rainfall 0.04 in
Snow Depth Not available.
UV 0 out of 12
Pollen 6.30 out of 12
Air Quality Not available.
Flu Activity Regional
METAR KJXN 060956Z 11004KT 1 1/2SM BR OVC002 11/10 A3023 RMK AO2 SLP242 T01060100

More Conditions Fewer Conditions

Pressure 30.25 in
Visibility 1.5 miles
Clouds Overcast 200 ft
Dew Point 52 °F
Humidity 99%
Rainfall 0.04 in
Snow Depth Not available.
UV 0 out of 12
Pollen 6.30 out of 12
Air Quality Not available.
Flu Activity Regional
METAR KJXN 060956Z 11004KT 1 1/2SM BR OVC002 11/10 A3023 RMK AO2 SLP242 T01060100

More Conditions Fewer Conditions

10-Day Weather Forecast

Almanac

Astronomy

May. 06, 2015 Rise Set
Actual Time
Civil Twilight
Nautical Twilight
Astronomical Twilight
Moon
Length of Visible Light
Length of Day
Tomorrow will be .
, % of the Moon is Illuminated

Today's Extremes

State Highs State Lows

Community

WunderPhotos

Upload Photos

1,818,859 photos uploaded!

WunderBlogs® & News

Nearby

Air Quality

  Air Quality AQ Index Pollutant
Not available.

Snow Depth

Station Depth Elevation

Earthquake Activity

City Distance Mag. Time & Date
Minimum magnitude displayed is 2.5.

Coastal Water Temperatures

Place Temperature

Stations

Nearby Weather Stations

Station Location Temp. Windchill Dew Point Humidity Wind Precip. Elev Updated Type